Terminal Aerodrome Forecast
Issued by NWS

Home | Current Version | Previous Version | Text Only | Print | Product List | Glossary On
Versions: 1 2 3 4 5 6 7 8 9 10 11 12 13 14
848
FTUS42 TJSJ 010127 AAA
TAFJSJ
TAF AMD
TJSJ 010127Z 0101/0124 08013KT P6SM VCSH SCT025 BKN060
      TEMPO 0101/0104 5SM SHRA BKN030 BKN040 OVC050
     FM011300 07015G21KT P6SM SCT025 SCT060 SCT090
     FM012300 08011KT P6SM -SHRA SCT026 SCT040 BKN060=

USA.gov is the U.S. government's official web portal to all federal, state and local government web resources and services.